Time;durP1;ratioP1;P1;durP2;ratioP2;P2;SDS_P1;SDS_P2;PMS_P1;PMS_P2;Temp;Humidity;BMP_temperature;BMP_pressure;BME280_temperature;BME280_humidity;BME280_pressure;Samples;Min_cycle;Max_cycle;Signal;HPM_P1;HPM_P2
2023/10/03 00:02:07;;;;;;;26.95;9.82;;;21.80;71.80;;;;;;5100647;28;20028;-63
2023/10/03 00:04:34;;;;;;;17.27;9.35;;;21.80;71.70;;;;;;5110119;28;20024;-64
2023/10/03 00:07:00;;;;;;;20.73;9.43;;;21.80;71.80;;;;;;5110496;28;20081;-64
2023/10/03 00:09:26;;;;;;;21.20;9.32;;;21.80;72.00;;;;;;5110638;28;20483;-64
2023/10/03 00:11:51;;;;;;;18.30;9.45;;;21.80;71.70;;;;;;5109259;28;20050;-64
2023/10/03 00:14:18;;;;;;;21.48;8.90;;;21.80;71.70;;;;;;5101359;28;20024;-63
2023/10/03 00:16:44;;;;;;;21.25;9.23;;;21.80;72.30;;;;;;5097312;28;20035;-64
2023/10/03 00:19:11;;;;;;;23.33;9.65;;;21.80;71.80;;;;;;5101414;28;20545;-64
2023/10/03 00:21:37;;;;;;;19.70;9.23;;;21.70;71.70;;;;;;5097275;28;20447;-64
2023/10/03 00:24:05;;;;;;;22.55;9.43;;;21.70;71.70;;;;;;5090762;28;20059;-64
2023/10/03 00:26:32;;;;;;;20.65;9.00;;;21.70;71.70;;;;;;5097211;28;20072;-64
2023/10/03 00:28:59;;;;;;;26.05;8.65;;;21.80;72.00;;;;;;5092956;28;20043;-63
2023/10/03 00:31:24;;;;;;;22.60;9.90;;;21.70;72.10;;;;;;5095117;28;20024;-64
2023/10/03 00:33:50;;;;;;;27.33;9.25;;;21.80;72.00;;;;;;5092486;28;20432;-64
2023/10/03 00:36:18;;;;;;;33.67;9.48;;;21.80;72.00;;;;;;5073884;28;20032;-64
2023/10/03 00:38:45;;;;;;;28.27;9.23;;;21.80;72.10;;;;;;5074674;28;20028;-64
2023/10/03 00:41:12;;;;;;;34.80;9.35;;;21.80;71.90;;;;;;5092794;28;20038;-64
2023/10/03 00:43:54;;;;;;;21.75;9.18;;;21.70;71.80;;;;;;5092509;28;20114;-63
2023/10/03 00:46:21;;;;;;;24.90;9.60;;;21.70;71.70;;;;;;5092661;28;20028;-64
2023/10/03 00:48:47;;;;;;;21.27;8.20;;;21.70;71.70;;;;;;5092775;28;20020;-63
2023/10/03 00:51:14;;;;;;;28.48;9.90;;;21.70;71.70;;;;;;5091551;28;20464;-64
2023/10/03 00:53:41;;;;;;;29.67;9.40;;;21.70;71.80;;;;;;5074103;28;20061;-63
2023/10/03 00:56:11;;;;;;;26.58;9.60;;;21.70;71.80;;;;;;5091452;28;20446;-64
2023/10/03 00:58:37;;;;;;;28.98;8.80;;;21.60;71.70;;;;;;5074442;28;20055;-64
2023/10/03 01:01:03;;;;;;;25.75;9.05;;;21.60;71.70;;;;;;5092429;28;20498;-64
2023/10/03 01:03:37;;;;;;;22.88;8.90;;;21.60;71.80;;;;;;5092033;28;20119;-64
2023/10/03 01:06:09;;;;;;;22.65;9.02;;;21.60;71.70;;;;;;5092428;28;20127;-64
2023/10/03 01:08:36;;;;;;;34.85;8.80;;;21.60;71.80;;;;;;5092526;28;20078;-64
2023/10/03 01:11:17;;;;;;;20.13;8.15;;;21.60;71.70;;;;;;5090892;28;20364;-64
2023/10/03 01:13:49;;;;;;;16.83;7.82;;;21.60;71.80;;;;;;5053878;28;20051;-64
2023/10/03 01:16:34;;;;;;;19.77;8.43;;;21.60;71.70;;;;;;5063736;28;20077;-64
2023/10/03 01:21:46;;;;;;;16.63;8.13;;;21.60;71.70;;;;;;5073229;28;20031;-64
2023/10/03 01:24:15;;;;;;;18.48;8.20;;;21.60;71.60;;;;;;5069331;28;20028;-64
2023/10/03 01:26:41;;;;;;;20.95;8.55;;;21.60;71.60;;;;;;5091836;28;20124;-63
2023/10/03 01:29:07;;;;;;;18.05;8.23;;;21.60;71.50;;;;;;5091992;28;20024;-63
2023/10/03 01:31:33;;;;;;;18.92;8.43;;;21.60;71.50;;;;;;5091890;28;20020;-64
2023/10/03 01:34:01;;;;;;;17.23;8.35;;;21.60;71.40;;;;;;5091574;28;20030;-64
2023/10/03 01:36:27;;;;;;;16.42;7.55;;;21.60;71.40;;;;;;5091836;28;20032;-64
2023/10/03 01:38:52;;;;;;;19.52;8.43;;;21.60;71.50;;;;;;5090960;28;20027;-64
2023/10/03 01:41:19;;;;;;;16.92;7.88;;;21.60;71.30;;;;;;5072705;28;20059;-64
2023/10/03 01:43:45;;;;;;;15.13;7.65;;;21.60;71.30;;;;;;5091254;28;20456;-64
2023/10/03 01:46:12;;;;;;;14.13;7.50;;;21.60;71.30;;;;;;5091339;28;20051;-64
2023/10/03 01:48:38;;;;;;;18.85;8.35;;;21.60;71.10;;;;;;5091880;28;20096;-64
2023/10/03 01:51:05;;;;;;;16.75;8.00;;;21.60;71.20;;;;;;5090807;28;20027;-64
2023/10/03 01:53:31;;;;;;;14.35;7.18;;;21.60;71.10;;;;;;5091132;28;20039;-64
2023/10/03 01:55:57;;;;;;;17.23;8.00;;;21.60;71.20;;;;;;5073396;28;20058;-64
2023/10/03 01:58:24;;;;;;;16.17;7.22;;;21.60;71.10;;;;;;5072304;28;20032;-64
2023/10/03 02:00:51;;;;;;;20.80;8.15;;;21.60;71.10;;;;;;5076251;28;20398;-64
2023/10/03 02:03:18;;;;;;;18.05;7.72;;;21.60;71.10;;;;;;5076274;28;20032;-63
2023/10/03 02:05:45;;;;;;;15.40;7.10;;;21.60;71.00;;;;;;5073180;28;20039;-64
2023/10/03 02:08:18;;;;;;;16.50;7.28;;;21.60;71.00;;;;;;5073186;28;20039;-64
2023/10/03 02:10:45;;;;;;;16.63;7.53;;;21.60;71.10;;;;;;5089900;28;20025;-64
2023/10/03 02:13:14;;;;;;;16.52;7.53;;;21.60;71.50;;;;;;5090766;28;20032;-64
2023/10/03 02:15:47;;;;;;;16.80;7.75;;;21.50;70.90;;;;;;5091224;28;20104;-63
2023/10/03 02:18:14;;;;;;;16.80;7.30;;;21.50;70.90;;;;;;5073129;28;20063;-64
2023/10/03 02:20:51;;;;;;;19.27;7.65;;;21.50;71.00;;;;;;5073023;28;20028;-64
2023/10/03 02:23:20;;;;;;;16.15;6.95;;;21.50;70.80;;;;;;5090768;28;20115;-64
2023/10/03 02:25:50;;;;;;;18.48;8.10;;;21.50;70.90;;;;;;5089944;28;20028;-64
2023/10/03 02:28:16;;;;;;;16.55;7.57;;;21.50;70.80;;;;;;5090846;28;20085;-64
2023/10/03 02:30:43;;;;;;;15.05;7.63;;;21.50;70.70;;;;;;5072022;28;20032;-64
2023/10/03 02:33:12;;;;;;;13.70;7.03;;;21.50;70.70;;;;;;5072574;28;20380;-64
2023/10/03 02:35:42;;;;;;;;;;;21.50;70.70;;;;;;5073335;28;20024;-64
2023/10/03 02:38:23;;;;;;;17.05;7.70;;;21.50;70.70;;;;;;5072908;28;19908;-64
2023/10/03 02:40:59;;;;;;;15.07;7.55;;;21.50;70.70;;;;;;5072975;28;20032;-64
2023/10/03 02:43:31;;;;;;;14.95;7.35;;;21.50;70.70;;;;;;5072678;28;20028;-64
2023/10/03 02:45:59;;;;;;;16.95;7.95;;;21.50;70.50;;;;;;5071704;28;20038;-64
2023/10/03 02:48:26;;;;;;;19.47;7.90;;;21.60;70.40;;;;;;5072547;28;20052;-64
2023/10/03 02:50:52;;;;;;;17.23;8.05;;;21.50;69.90;;;;;;5091247;28;20265;-64
2023/10/03 02:53:19;;;;;;;20.10;7.50;;;21.60;70.10;;;;;;5072420;28;20484;-64
2023/10/03 02:55:47;;;;;;;20.17;7.82;;;21.50;70.00;;;;;;5090838;28;20448;-64
2023/10/03 02:58:13;;;;;;;18.92;7.55;;;21.50;70.20;;;;;;5072652;28;20082;-64
2023/10/03 03:00:41;;;;;;;21.02;7.72;;;21.50;70.60;;;;;;5071739;28;20148;-64
2023/10/03 03:03:09;;;;;;;18.73;7.18;;;21.60;70.50;;;;;;5072161;28;20061;-63
2023/10/03 03:05:37;;;;;;;18.35;8.05;;;21.50;70.70;;;;;;5071610;28;20024;-64
2023/10/03 03:10:57;;;;;;;15.68;7.88;;;21.50;70.40;;;;;;5086000;28;20032;-64
2023/10/03 03:13:27;;;;;;;17.08;8.25;;;21.50;70.50;;;;;;5070111;28;20028;-64
2023/10/03 03:16:00;;;;;;;18.75;7.82;;;21.50;70.40;;;;;;5085859;28;20107;-64
2023/10/03 03:18:42;;;;;;;22.02;8.05;;;21.50;70.40;;;;;;5070361;28;20039;-64
2023/10/03 03:21:10;;;;;;;20.13;8.27;;;21.50;70.30;;;;;;5078662;28;20111;-64
2023/10/03 03:23:36;;;;;;;18.98;8.05;;;21.50;70.30;;;;;;5093989;28;20024;-64
2023/10/03 03:26:17;;;;;;;16.48;7.10;;;21.50;70.30;;;;;;5094227;28;20410;-64
2023/10/03 03:28:49;;;;;;;17.38;7.90;;;21.50;70.10;;;;;;5094441;28;20081;-63
2023/10/03 03:31:22;;;;;;;17.50;8.30;;;21.50;70.20;;;;;;5094435;28;20491;-64
2023/10/03 03:33:52;;;;;;;20.85;8.18;;;21.50;70.20;;;;;;5093163;28;20099;-64
2023/10/03 03:36:19;;;;;;;15.82;7.82;;;21.50;70.10;;;;;;5093970;28;20495;-64
2023/10/03 03:38:49;;;;;;;15.85;7.47;;;21.50;70.10;;;;;;5094042;28;20059;-64
2023/10/03 03:41:16;;;;;;;17.95;8.45;;;21.40;70.10;;;;;;5094082;28;20058;-63
2023/10/03 03:43:45;;;;;;;18.60;8.05;;;21.50;69.90;;;;;;5093589;28;20062;-64
2023/10/03 03:46:12;;;;;;;19.67;8.73;;;21.40;69.70;;;;;;5092751;28;20498;-64
2023/10/03 03:48:39;;;;;;;18.27;8.43;;;21.50;69.80;;;;;;5093848;28;20095;-64
2023/10/03 03:51:11;;;;;;;17.35;7.90;;;21.50;69.80;;;;;;5093137;28;20104;-64
2023/10/03 03:53:38;;;;;;;19.15;8.35;;;21.50;69.70;;;;;;5093601;28;20028;-64
2023/10/03 03:56:07;;;;;;;18.40;8.48;;;21.50;69.60;;;;;;5092988;28;20024;-64
2023/10/03 03:58:45;;;;;;;17.50;8.73;;;21.50;69.70;;;;;;5093529;28;20461;-64
2023/10/03 04:01:23;;;;;;;16.90;7.85;;;21.50;69.70;;;;;;5093777;28;20040;-64
2023/10/03 04:03:53;;;;;;;15.40;7.55;;;21.50;69.60;;;;;;5075077;28;20032;-64
2023/10/03 04:06:20;;;;;;;17.95;8.77;;;21.50;69.50;;;;;;5093031;28;20077;-63
2023/10/03 04:08:46;;;;;;;17.65;7.82;;;21.50;69.60;;;;;;5093570;28;20103;-63
2023/10/03 04:11:13;;;;;;;19.05;7.93;;;21.50;69.50;;;;;;5093477;28;20391;-64
2023/10/03 04:13:49;;;;;;;17.35;8.23;;;21.50;69.40;;;;;;5093182;28;20200;-64
2023/10/03 04:16:20;;;;;;;15.93;8.02;;;21.50;69.40;;;;;;5093238;28;20072;-64
2023/10/03 04:18:50;;;;;;;16.42;8.85;;;21.50;69.40;;;;;;5092689;28;20085;-64
2023/10/03 04:21:16;;;;;;;18.50;8.95;;;21.50;69.30;;;;;;5093281;28;20036;-64
2023/10/03 04:23:44;;;;;;;18.70;8.02;;;21.50;69.40;;;;;;5092798;28;20020;-64
2023/10/03 04:26:10;;;;;;;17.23;8.52;;;21.50;69.30;;;;;;5093055;28;20093;-64
2023/10/03 04:28:38;;;;;;;16.75;8.13;;;21.40;69.30;;;;;;5093157;28;20020;-64
2023/10/03 04:31:04;;;;;;;18.48;8.43;;;21.50;69.30;;;;;;5092221;28;20512;-64
2023/10/03 04:33:30;;;;;;;22.20;8.52;;;21.40;69.20;;;;;;5092175;28;20028;-64
2023/10/03 04:35:57;;;;;;;17.35;8.68;;;21.40;69.20;;;;;;5093007;28;20028;-64
2023/10/03 04:38:23;;;;;;;19.13;9.13;;;21.50;69.30;;;;;;5071125;28;20031;-64
2023/10/03 04:40:49;;;;;;;16.88;8.10;;;21.50;69.10;;;;;;5091323;28;20102;-63
2023/10/03 04:43:15;;;;;;;20.02;8.40;;;21.50;69.10;;;;;;5090244;28;20487;-63
2023/10/03 04:45:42;;;;;;;16.08;8.38;;;21.40;69.20;;;;;;5103351;22;20092;-55
2023/10/03 04:48:09;;;;;;;18.17;9.10;;;21.50;69.20;;;;;;5065934;28;20031;-56
2023/10/03 04:50:36;;;;;;;19.38;8.95;;;21.50;69.20;;;;;;5065307;28;20507;-55
2023/10/03 04:53:03;;;;;;;21.25;8.68;;;21.50;69.20;;;;;;5072099;28;20454;-56
2023/10/03 04:55:29;;;;;;;19.67;9.05;;;21.40;69.00;;;;;;5070337;28;20100;-52
2023/10/03 04:57:55;;;;;;;18.35;9.25;;;21.40;69.20;;;;;;5063109;28;20024;-54
2023/10/03 05:00:23;;;;;;;15.32;8.63;;;21.40;69.10;;;;;;5070880;28;20024;-55
2023/10/03 05:02:50;;;;;;;16.13;8.40;;;21.40;69.10;;;;;;5064706;28;20032;-55
2023/10/03 05:05:21;;;;;;;21.05;9.65;;;21.40;69.00;;;;;;5071899;28;20024;-54
2023/10/03 05:07:49;;;;;;;20.80;9.30;;;21.40;69.60;;;;;;5072060;28;20031;-52
2023/10/03 05:10:17;;;;;;;21.85;9.45;;;21.40;69.00;;;;;;5071867;28;20031;-55
2023/10/03 05:12:46;;;;;;;18.50;9.07;;;21.40;68.90;;;;;;5062210;28;20023;-56
2023/10/03 05:15:14;;;;;;;18.77;8.98;;;21.40;68.80;;;;;;5067014;28;20475;-57
2023/10/03 05:17:43;;;;;;;18.08;9.20;;;21.40;68.80;;;;;;5071485;28;20459;-57
2023/10/03 05:20:13;;;;;;;19.65;9.43;;;21.40;68.80;;;;;;5071616;28;20047;-53
2023/10/03 05:22:45;;;;;;;20.75;9.82;;;21.40;68.90;;;;;;5071183;28;20127;-54
2023/10/03 05:25:12;;;;;;;21.17;10.23;;;21.40;68.80;;;;;;5071604;28;20028;-52
2023/10/03 05:27:42;;;;;;;19.70;10.73;;;21.40;68.80;;;;;;5064298;28;20440;-55
2023/10/03 05:30:14;;;;;;;19.08;9.95;;;21.40;68.80;;;;;;5066239;28;20044;-53
2023/10/03 05:32:42;;;;;;;18.02;9.63;;;21.40;68.80;;;;;;5069573;28;20025;-54
2023/10/03 05:35:12;;;;;;;21.33;10.63;;;21.40;68.90;;;;;;5065501;28;20078;-56
2023/10/03 05:37:41;;;;;;;18.30;9.68;;;21.40;68.60;;;;;;5069381;28;20223;-53
2023/10/03 05:40:11;;;;;;;21.30;9.75;;;21.40;68.70;;;;;;5057975;28;20053;-54
2023/10/03 05:42:40;;;;;;;24.13;11.30;;;21.40;68.80;;;;;;5069814;28;20035;-53
2023/10/03 05:45:13;;;;;;;20.95;10.20;;;21.40;68.70;;;;;;5065496;28;20498;-50
2023/10/03 05:47:41;;;;;;;21.58;10.50;;;21.40;68.80;;;;;;5070430;28;20036;-51
2023/10/03 05:50:09;;;;;;;21.08;11.43;;;21.40;68.80;;;;;;5071171;28;20083;-52
2023/10/03 05:52:36;;;;;;;20.95;11.02;;;21.40;68.80;;;;;;5070746;28;20086;-51
2023/10/03 05:55:02;;;;;;;24.25;10.65;;;21.40;68.70;;;;;;5070973;28;20515;-54
2023/10/03 05:57:28;;;;;;;20.17;11.38;;;21.40;68.80;;;;;;5067285;28;20033;-52
2023/10/03 05:59:54;;;;;;;20.77;10.70;;;21.30;68.70;;;;;;5071014;28;20020;-57
2023/10/03 06:02:21;;;;;;;20.85;10.68;;;21.40;68.70;;;;;;5070332;28;20071;-57
2023/10/03 06:04:49;;;;;;;19.45;10.63;;;21.40;68.70;;;;;;5062840;28;20024;-55
2023/10/03 06:07:15;;;;;;;25.15;10.48;;;21.40;68.70;;;;;;5070692;28;20394;-55
2023/10/03 06:09:41;;;;;;;21.08;11.05;;;21.40;68.80;;;;;;5069585;28;20220;-55
2023/10/03 06:12:09;;;;;;;21.42;10.48;;;21.40;68.50;;;;;;5066504;28;20086;-55
2023/10/03 06:14:35;;;;;;;19.77;10.85;;;21.40;68.60;;;;;;5065308;28;20024;-55
2023/10/03 06:17:02;;;;;;;20.75;10.80;;;21.40;68.60;;;;;;5068850;28;20081;-55
2023/10/03 06:19:29;;;;;;;21.80;11.18;;;21.40;68.60;;;;;;5067288;28;20116;-56
2023/10/03 06:21:56;;;;;;;23.35;11.18;;;21.40;68.50;;;;;;5062396;28;20020;-59
2023/10/03 06:24:25;;;;;;;21.42;11.10;;;21.40;68.50;;;;;;5067146;28;20116;-54
2023/10/03 06:26:50;;;;;;;23.52;11.25;;;21.40;68.60;;;;;;5061781;28;20444;-56
2023/10/03 06:29:16;;;;;;;22.48;11.88;;;21.40;68.60;;;;;;5060768;28;20044;-56
2023/10/03 06:31:44;;;;;;;21.67;11.77;;;21.40;68.50;;;;;;5070095;28;20278;-52
2023/10/03 06:34:11;;;;;;;22.60;11.77;;;21.40;68.50;;;;;;5070409;28;20024;-50
2023/10/03 06:36:38;;;;;;;21.55;11.95;;;21.40;68.40;;;;;;5068876;28;20028;-53
2023/10/03 06:39:04;;;;;;;21.05;11.40;;;21.40;68.50;;;;;;5066967;28;20170;-52
2023/10/03 06:41:31;;;;;;;22.33;12.10;;;21.40;68.40;;;;;;5063015;28;20377;-54
2023/10/03 06:43:57;;;;;;;20.20;11.85;;;21.40;68.40;;;;;;5066408;28;20439;-58
2023/10/03 06:46:23;;;;;;;23.85;11.77;;;21.40;68.50;;;;;;5064187;28;20043;-57
2023/10/03 06:48:52;;;;;;;24.17;12.25;;;21.40;68.40;;;;;;5064710;28;20079;-57
2023/10/03 06:51:18;;;;;;;23.17;11.90;;;21.40;68.40;;;;;;5059359;28;20025;-55
2023/10/03 06:53:47;;;;;;;24.58;11.63;;;21.40;68.40;;;;;;5063298;28;20074;-55
2023/10/03 06:56:14;;;;;;;23.27;12.02;;;21.40;68.40;;;;;;5072004;28;20476;-52
2023/10/03 06:58:40;;;;;;;23.13;12.13;;;21.40;68.40;;;;;;5073954;28;20043;-57
2023/10/03 07:01:08;;;;;;;24.83;12.43;;;21.40;68.40;;;;;;5073465;28;20062;-54
2023/10/03 07:03:35;;;;;;;21.30;11.10;;;21.40;68.40;;;;;;5057642;28;20056;-59
2023/10/03 07:06:01;;;;;;;22.27;11.48;;;21.40;68.40;;;;;;5070971;28;20031;-57
2023/10/03 07:08:27;;;;;;;25.40;12.15;;;21.40;68.40;;;;;;5073425;28;20103;-57
2023/10/03 07:10:53;;;;;;;23.10;11.95;;;21.40;68.40;;;;;;5061083;28;20113;-57
2023/10/03 07:13:20;;;;;;;23.52;12.38;;;21.40;68.40;;;;;;5070678;28;20062;-57
2023/10/03 07:15:46;;;;;;;22.48;12.50;;;21.40;68.30;;;;;;5073459;28;20028;-56
2023/10/03 07:18:11;;;;;;;22.40;11.60;;;21.40;68.40;;;;;;5074253;28;20032;-56
2023/10/03 07:20:38;;;;;;;23.67;11.63;;;21.40;68.40;;;;;;5072301;28;20016;-52
2023/10/03 07:23:05;;;;;;;22.52;11.90;;;21.40;68.40;;;;;;5059266;28;20152;-57
2023/10/03 07:25:32;;;;;;;24.15;12.93;;;21.40;69.00;;;;;;5069579;28;20442;-51
2023/10/03 07:27:58;;;;;;;22.65;12.68;;;21.40;68.40;;;;;;5072772;28;20031;-54
2023/10/03 07:30:25;;;;;;;20.98;11.75;;;21.40;68.40;;;;;;5072821;28;20398;-57
2023/10/03 07:32:51;;;;;;;24.17;12.65;;;21.40;68.30;;;;;;5070549;28;20087;-54
2023/10/03 07:35:19;;;;;;;24.13;12.20;;;21.40;68.30;;;;;;5069383;28;20093;-54
2023/10/03 07:37:45;;;;;;;24.67;11.88;;;21.40;68.30;;;;;;5071185;28;20499;-55
2023/10/03 07:40:11;;;;;;;27.98;12.77;;;21.40;68.40;;;;;;5072512;28;20066;-53
2023/10/03 07:42:40;;;;;;;24.08;11.80;;;21.40;68.30;;;;;;5069298;28;20048;-56
2023/10/03 07:45:08;;;;;;;24.65;12.90;;;21.40;68.40;;;;;;5071941;28;20430;-53
2023/10/03 07:47:33;;;;;;;28.63;13.50;;;21.40;68.30;;;;;;5053829;28;20028;-55
2023/10/03 07:50:03;;;;;;;25.35;12.68;;;21.40;68.40;;;;;;5069311;28;20032;-53
2023/10/03 07:52:29;;;;;;;26.17;13.32;;;21.40;68.30;;;;;;5071353;28;20388;-49
2023/10/03 07:54:57;;;;;;;23.42;12.90;;;21.40;68.30;;;;;;5068645;28;20027;-54
2023/10/03 07:57:23;;;;;;;24.70;12.82;;;21.40;68.40;;;;;;5072425;28;20037;-52
2023/10/03 07:59:50;;;;;;;27.70;13.35;;;21.40;68.50;;;;;;5064200;28;20042;-50
2023/10/03 08:02:16;;;;;;;24.85;12.88;;;21.50;68.40;;;;;;5068008;28;20047;-52
2023/10/03 08:04:46;;;;;;;25.85;13.23;;;21.40;68.40;;;;;;5068235;28;20032;-55
2023/10/03 08:07:21;;;;;;;25.52;13.38;;;21.50;68.50;;;;;;5069538;28;20062;-55
2023/10/03 08:09:50;;;;;;;24.42;13.20;;;21.50;68.40;;;;;;5071344;28;20020;-55
2023/10/03 08:12:25;;;;;;;24.13;12.50;;;21.50;68.40;;;;;;5070880;28;20099;-57
2023/10/03 08:14:53;;;;;;;24.75;13.27;;;21.50;68.60;;;;;;5069273;28;20021;-51
2023/10/03 08:17:19;;;;;;;28.50;13.30;;;21.50;68.50;;;;;;5070474;28;20522;-54
2023/10/03 08:19:48;;;;;;;30.17;13.13;;;21.60;68.60;;;;;;5072543;28;20095;-49
2023/10/03 08:22:15;;;;;;;28.10;13.73;;;21.60;69.00;;;;;;5071337;28;20032;-50
2023/10/03 08:24:44;;;;;;;27.45;13.77;;;21.60;69.00;;;;;;5070831;28;20504;-54
2023/10/03 08:27:18;;;;;;;26.17;14.00;;;21.60;69.00;;;;;;5071993;28;20457;-48
2023/10/03 08:29:50;;;;;;;25.95;14.32;;;21.60;68.70;;;;;;5070987;28;20059;-56
2023/10/03 08:32:17;;;;;;;30.02;13.77;;;21.60;68.70;;;;;;5066275;28;20032;-55
2023/10/03 08:34:44;;;;;;;27.40;14.10;;;21.60;68.70;;;;;;5057888;28;20037;-57
2023/10/03 08:37:18;;;;;;;27.98;13.77;;;21.60;68.90;;;;;;5068607;28;20039;-57
2023/10/03 08:39:46;;;;;;;27.00;13.50;;;21.60;68.90;;;;;;5069835;28;20028;-57
2023/10/03 08:42:13;;;;;;;28.73;14.25;;;21.60;69.50;;;;;;5063240;28;20021;-57
2023/10/03 08:44:51;;;;;;;29.35;13.00;;;21.60;69.40;;;;;;5060853;28;20021;-57
2023/10/03 08:47:38;;;;;;;26.00;14.18;;;21.60;69.00;;;;;;5071246;28;20032;-57
2023/10/03 08:50:14;;;;;;;25.90;13.30;;;21.60;69.40;;;;;;5071833;28;20034;-58
2023/10/03 08:52:46;;;;;;;25.88;13.88;;;21.60;69.20;;;;;;5070943;28;20507;-58
2023/10/03 08:55:19;;;;;;;26.50;13.45;;;21.60;69.10;;;;;;5072123;28;20054;-57
2023/10/03 08:57:49;;;;;;;26.80;13.57;;;21.60;69.20;;;;;;5070866;28;20434;-57
2023/10/03 09:00:15;;;;;;;;;;;21.60;69.20;;;;;;5071782;28;20025;-57
2023/10/03 09:02:47;;;;;;;29.33;14.52;;;21.60;69.40;;;;;;5071113;28;19916;-57
2023/10/03 09:05:24;;;;;;;24.98;13.27;;;21.60;69.20;;;;;;5066400;28;20113;-57
2023/10/03 09:07:51;;;;;;;27.17;14.32;;;21.60;69.20;;;;;;5065752;28;20057;-57
2023/10/03 09:10:22;;;;;;;29.45;14.23;;;21.60;69.50;;;;;;5066236;28;20017;-57
2023/10/03 09:12:54;;;;;;;31.05;15.18;;;21.60;69.50;;;;;;5071299;28;20155;-57
2023/10/03 09:15:22;;;;;;;32.30;14.15;;;21.70;69.50;;;;;;5071762;28;20032;-57
2023/10/03 09:17:52;;;;;;;32.60;15.90;;;21.70;69.40;;;;;;5071721;28;20020;-57
2023/10/03 09:20:23;;;;;;;35.88;15.90;;;21.70;69.50;;;;;;5071820;28;20025;-57
2023/10/03 09:22:49;;;;;;;30.27;14.55;;;21.70;69.70;;;;;;5066856;28;20051;-57
2023/10/03 09:25:21;;;;;;;31.17;14.35;;;21.70;69.70;;;;;;5071444;28;20020;-57
2023/10/03 09:27:47;;;;;;;27.10;14.30;;;21.70;69.70;;;;;;5070733;28;20029;-57
2023/10/03 09:30:22;;;;;;;30.10;13.60;;;21.70;69.50;;;;;;5066489;28;20475;-57
2023/10/03 09:32:53;;;;;;;29.55;14.15;;;21.70;69.70;;;;;;5068645;28;20024;-55
2023/10/03 09:35:19;;;;;;;35.13;14.43;;;21.80;70.50;;;;;;5066096;28;20357;-57
2023/10/03 09:37:48;;;;;;;33.85;15.13;;;21.80;70.50;;;;;;5068467;28;20040;-55
2023/10/03 09:40:17;;;;;;;37.78;15.30;;;21.90;71.10;;;;;;5070976;28;20024;-57
2023/10/03 09:42:48;;;;;;;38.60;15.48;;;21.90;70.60;;;;;;5069461;28;20254;-56
2023/10/03 09:45:24;;;;;;;36.72;17.25;;;21.90;70.00;;;;;;5070417;28;20025;-57
2023/10/03 09:48:05;;;;;;;40.22;16.27;;;21.90;71.00;;;;;;5065448;28;20035;-57
2023/10/03 09:50:31;;;;;;;41.20;16.65;;;22.00;71.00;;;;;;5071180;28;20051;-54
2023/10/03 09:53:06;;;;;;;55.88;16.60;;;22.10;71.40;;;;;;5070096;28;20427;-56
2023/10/03 09:55:41;;;;;;;47.83;16.45;;;22.10;71.00;;;;;;5063954;28;20020;-58
2023/10/03 09:58:08;;;;;;;35.38;16.10;;;22.10;71.40;;;;;;5067286;28;20017;-57
2023/10/03 10:00:53;;;;;;;45.65;16.80;;;22.00;70.50;;;;;;5068526;28;20480;-56
2023/10/03 10:03:26;;;;;;;38.08;16.80;;;22.10;72.80;;;;;;5063236;28;20025;-55
2023/10/03 10:06:12;;;;;;;42.88;16.67;;;22.00;71.90;;;;;;5062702;28;20021;-55
2023/10/03 10:08:47;;;;;;;44.78;16.05;;;22.00;72.60;;;;;;5070865;28;20028;-56
2023/10/03 10:11:13;;;;;;;36.80;15.68;;;22.00;72.10;;;;;;5070842;28;20158;-55
2023/10/03 10:14:09;;;;;;;36.80;14.95;;;22.00;72.50;;;;;;5070272;28;20024;-56
2023/10/03 10:17:04;;;;;;;35.47;14.48;;;22.00;72.50;;;;;;5071021;28;20170;-58
2023/10/03 10:20:07;;;;;;;39.22;14.98;;;22.00;72.70;;;;;;5061387;28;20181;-57
2023/10/03 10:22:58;;;;;;;36.03;15.05;;;22.00;72.70;;;;;;5069997;28;20032;-56
2023/10/03 10:25:31;;;;;;;33.45;14.57;;;22.00;72.70;;;;;;5069309;28;20041;-53
2023/10/03 10:28:08;;;;;;;32.55;14.75;;;22.00;73.00;;;;;;5063568;28;20040;-53
2023/10/03 10:30:35;;;;;;;29.60;14.43;;;22.00;72.10;;;;;;5064543;28;20032;-52
2023/10/03 10:33:16;;;;;;;39.05;15.02;;;21.90;71.90;;;;;;5070040;28;20480;-54
2023/10/03 10:35:54;;;;;;;30.30;14.50;;;21.90;72.90;;;;;;5067324;28;20472;-54
2023/10/03 10:38:30;;;;;;;34.15;14.45;;;21.90;72.20;;;;;;5063088;28;20033;-57
2023/10/03 10:41:22;;;;;;;37.28;14.27;;;21.90;72.20;;;;;;5060868;28;20044;-54
2023/10/03 10:44:06;;;;;;;31.33;13.40;;;21.90;72.20;;;;;;5063887;28;20069;-53
2023/10/03 10:46:35;;;;;;;31.38;14.07;;;21.90;72.60;;;;;;5097216;22;20055;-65
2023/10/03 10:49:06;;;;;;;33.38;13.73;;;21.90;73.10;;;;;;5110317;28;20360;-64
2023/10/03 10:51:36;;;;;;;38.42;14.52;;;22.00;73.30;;;;;;5103254;28;20038;-62
2023/10/03 10:54:04;;;;;;;;;;;22.10;72.60;;;;;;5109817;28;20235;-65
2023/10/03 10:56:32;;;;;;;33.53;13.15;;;22.10;72.40;;;;;;5102016;28;20336;-65
2023/10/03 10:59:07;;;;;;;35.55;12.93;;;22.00;71.90;;;;;;5090366;28;20081;-65
2023/10/03 11:01:39;;;;;;;28.70;13.40;;;21.90;71.80;;;;;;5090384;28;20027;-65
2023/10/03 11:04:06;;;;;;;30.42;13.75;;;21.90;71.70;;;;;;5089830;28;20035;-65
2023/10/03 11:06:32;;;;;;;32.92;13.70;;;21.90;71.80;;;;;;5090069;28;20032;-65
2023/10/03 11:08:58;;;;;;;32.83;13.40;;;21.90;71.60;;;;;;5090423;28;20433;-65
2023/10/03 11:11:39;;;;;;;30.83;13.75;;;21.80;71.60;;;;;;5090475;28;20028;-65
2023/10/03 11:14:05;;;;;;;36.25;14.20;;;21.80;71.60;;;;;;5090137;28;20024;-65
2023/10/03 11:16:31;;;;;;;31.50;13.55;;;21.80;71.60;;;;;;5090349;28;20513;-65
2023/10/03 11:18:59;;;;;;;33.40;12.43;;;21.80;71.60;;;;;;5090254;28;20111;-65
2023/10/03 11:21:25;;;;;;;31.45;12.52;;;21.80;71.30;;;;;;5090257;28;20024;-65
2023/10/03 11:24:14;;;;;;;30.88;12.40;;;21.80;71.50;;;;;;5089930;28;20028;-65
2023/10/03 11:26:54;;;;;;;31.90;14.13;;;21.80;71.30;;;;;;5090239;28;20051;-65
2023/10/03 11:29:39;;;;;;;;;;;21.80;71.30;;;;;;5090641;28;20028;-65
2023/10/03 11:32:16;;;;;;;32.42;13.88;;;21.80;71.20;;;;;;5071815;28;20410;-65
2023/10/03 11:34:42;;;;;;;27.95;12.57;;;21.80;71.10;;;;;;5090317;28;20111;-65
2023/10/03 11:37:08;;;;;;;28.67;13.23;;;21.80;71.90;;;;;;5090176;28;20145;-65
2023/10/03 11:39:38;;;;;;;32.80;12.82;;;21.80;71.30;;;;;;5090213;28;20024;-64
2023/10/03 11:42:26;;;;;;;26.00;11.85;;;21.80;71.40;;;;;;5090061;28;20024;-65
2023/10/03 11:45:01;;;;;;;29.58;11.63;;;21.80;71.50;;;;;;5075630;28;20119;-65
2023/10/03 11:47:30;;;;;;;28.20;11.77;;;21.80;71.40;;;;;;5093619;28;20032;-65
2023/10/03 11:49:56;;;;;;;25.30;11.98;;;21.70;71.40;;;;;;5093837;28;20032;-65
2023/10/03 11:52:23;;;;;;;29.50;12.63;;;21.70;71.30;;;;;;5093327;28;20077;-65
2023/10/03 11:54:49;;;;;;;26.10;12.55;;;21.70;71.30;;;;;;5093704;28;20028;-65
2023/10/03 11:57:15;;;;;;;30.17;12.50;;;21.70;71.20;;;;;;5093496;28;20035;-65
2023/10/03 11:59:41;;;;;;;29.02;12.43;;;21.70;71.30;;;;;;5093654;28;20032;-64
2023/10/03 12:02:08;;;;;;;26.70;12.05;;;21.70;71.30;;;;;;5093734;28;20020;-64
2023/10/03 12:04:40;;;;;;;28.13;12.43;;;21.70;71.20;;;;;;5093069;28;20498;-64
2023/10/03 12:07:06;;;;;;;23.23;11.57;;;21.70;71.20;;;;;;5072034;28;20028;-65
2023/10/03 12:09:32;;;;;;;25.70;12.18;;;21.70;71.20;;;;;;5092112;28;20024;-65
2023/10/03 12:11:58;;;;;;;24.17;11.60;;;21.70;71.10;;;;;;5092663;28;20038;-65
2023/10/03 12:14:23;;;;;;;21.05;10.70;;;21.70;71.20;;;;;;5092222;28;20104;-65
2023/10/03 12:16:52;;;;;;;23.90;11.75;;;21.70;71.20;;;;;;5092215;28;20111;-65
2023/10/03 12:19:21;;;;;;;23.38;11.77;;;21.70;71.10;;;;;;5092244;28;20097;-65
2023/10/03 12:21:47;;;;;;;37.47;11.40;;;21.70;71.10;;;;;;5090052;28;20523;-65
2023/10/03 12:24:14;;;;;;;26.38;11.50;;;21.70;71.10;;;;;;5091702;28;20028;-65
2023/10/03 12:26:40;;;;;;;28.40;10.88;;;21.70;71.20;;;;;;5096742;28;20020;-64
2023/10/03 12:29:07;;;;;;;24.90;11.13;;;21.80;71.60;;;;;;5091782;28;20024;-64
2023/10/03 12:31:33;;;;;;;28.98;11.30;;;21.80;72.00;;;;;;5091445;28;20034;-64
2023/10/03 12:34:01;;;;;;;30.10;10.93;;;21.90;71.50;;;;;;5111476;28;20023;-64
2023/10/03 12:36:32;;;;;;;34.88;11.30;;;21.90;70.60;;;;;;5112912;28;20035;-64
2023/10/03 12:39:10;;;;;;;27.13;10.73;;;21.90;70.70;;;;;;5091073;28;20031;-64
2023/10/03 12:41:36;;;;;;;24.65;11.07;;;21.90;70.40;;;;;;5100170;28;20046;-64
2023/10/03 12:44:03;;;;;;;25.70;10.88;;;21.80;70.00;;;;;;5091509;28;20031;-64
2023/10/03 12:46:28;;;;;;;24.23;11.43;;;21.80;69.50;;;;;;5092102;28;20081;-64
2023/10/03 12:48:54;;;;;;;24.92;10.60;;;21.80;69.30;;;;;;5092631;28;20020;-64
2023/10/03 12:51:20;;;;;;;30.90;11.48;;;21.90;69.40;;;;;;5093217;28;20510;-64